createdAt,value
2022-10-16T00:01:29.078Z,94252.59
2022-10-16T00:03:56.456Z,94247.97
2022-10-16T00:06:23.464Z,94250.28
2022-10-16T00:08:51.040Z,94249.50
2022-10-16T00:11:23.173Z,94250.28
2022-10-16T00:13:51.967Z,94251.69
2022-10-16T00:16:19.482Z,94244.44
2022-10-16T00:18:46.755Z,94248.13
2022-10-16T00:21:23.489Z,94251.88
2022-10-16T00:24:00.076Z,94252.94
2022-10-16T00:26:27.969Z,94255.13
2022-10-16T00:28:54.463Z,94261.78
2022-10-16T00:31:22.859Z,94261.00
2022-10-16T00:33:50.285Z,94255.59
2022-10-16T00:36:19.558Z,94254.38
2022-10-16T00:38:46.489Z,94259.19
2022-10-16T00:41:18.225Z,94253.16
2022-10-16T00:43:47.143Z,94257.63
2022-10-16T00:46:20.757Z,94257.63
2022-10-16T00:48:58.499Z,94259.81
2022-10-16T00:51:32.389Z,94262.44
2022-10-16T00:53:59.824Z,94257.50
2022-10-16T00:56:26.887Z,94257.34
2022-10-16T00:58:53.442Z,94262.91
2022-10-16T01:01:20.292Z,94264.31
2022-10-16T01:03:46.792Z,94264.63
2022-10-16T01:06:36.395Z,94273.56
2022-10-16T01:09:08.061Z,94275.75
2022-10-16T01:11:42.720Z,94278.66
2022-10-16T01:14:20.767Z,94277.91
2022-10-16T01:17:01.581Z,94279.31
2022-10-16T01:20:02.435Z,94271.16
2022-10-16T01:22:39.675Z,94277.31
2022-10-16T01:25:13.488Z,94285.03
2022-10-16T01:27:42.321Z,94273.94
2022-10-16T01:30:15.001Z,94267.63
2022-10-16T01:33:25.404Z,94260.38
2022-10-16T01:36:00.658Z,94261.00
2022-10-16T01:38:33.322Z,94260.22
2022-10-16T01:41:05.017Z,94261.63
2022-10-16T01:43:47.405Z,94270.56
2022-10-16T01:46:19.354Z,94273.81
2022-10-16T01:48:46.754Z,94273.34
2022-10-16T01:51:16.253Z,94281.22
2022-10-16T01:53:47.516Z,94282.00
2022-10-16T01:56:16.321Z,94280.75
2022-10-16T01:58:48.451Z,94288.81
2022-10-16T02:01:17.792Z,94288.97
2022-10-16T02:03:46.993Z,94287.72
2022-10-16T02:06:13.388Z,94284.78
2022-10-16T02:08:41.416Z,94274.75
2022-10-16T02:11:07.935Z,94265.66
2022-10-16T02:13:42.238Z,94263.19
2022-10-16T02:16:11.224Z,94282.00
2022-10-16T02:18:37.662Z,94283.56
2022-10-16T02:21:10.810Z,94276.47
2022-10-16T02:23:53.388Z,94269.81
2022-10-16T02:26:31.331Z,94272.44
2022-10-16T02:29:07.319Z,94282.63
2022-10-16T02:31:37.072Z,94274.28
2022-10-16T02:34:06.715Z,94280.59
2022-10-16T02:36:35.707Z,94277.53
2022-10-16T02:39:04.708Z,94272.44
2022-10-16T02:41:32.062Z,94280.75
2022-10-16T02:43:58.429Z,94290.03
2022-10-16T02:46:24.883Z,94292.31
2022-10-16T02:48:51.328Z,94287.53
2022-10-16T02:51:17.767Z,94291.41
2022-10-16T02:53:44.187Z,94289.53
2022-10-16T02:56:10.822Z,94288.47
2022-10-16T02:58:37.214Z,94288.13
2022-10-16T03:01:03.745Z,94290.00
2022-10-16T03:03:30.288Z,94293.09
2022-10-16T03:05:56.642Z,94290.47
2022-10-16T03:08:24.633Z,94287.84
2022-10-16T03:10:51.868Z,94286.78
2022-10-16T03:13:21.212Z,94290.47
2022-10-16T03:15:47.603Z,94309.13
2022-10-16T03:18:14.037Z,94307.28
2022-10-16T03:20:40.457Z,94297.88
2022-10-16T03:23:09.067Z,94275.03
2022-10-16T03:25:35.659Z,94261.91
2022-10-16T03:28:02.539Z,94273.81
2022-10-16T03:30:29.276Z,94290.94
2022-10-16T03:32:55.734Z,94284.00
2022-10-16T03:35:23.386Z,94294.66
2022-10-16T03:37:50.168Z,94300.53
2022-10-16T03:40:17.490Z,94299.75
2022-10-16T03:42:44.862Z,94291.09
2022-10-16T03:45:11.997Z,94283.41
2022-10-16T03:47:38.484Z,94282.00
2022-10-16T03:50:05.725Z,94285.72
2022-10-16T03:52:33.018Z,94283.41
2022-10-16T03:54:59.708Z,94293.88
2022-10-16T03:57:26.286Z,94289.44
2022-10-16T03:59:52.931Z,94283.41
2022-10-16T04:02:19.347Z,94281.84
2022-10-16T04:04:45.696Z,94280.63
2022-10-16T04:07:12.072Z,94277.88
2022-10-16T04:09:38.620Z,94277.88
2022-10-16T04:12:04.989Z,94273.25
2022-10-16T04:14:31.478Z,94284.34
2022-10-16T04:16:57.829Z,94290.81
2022-10-16T04:19:24.372Z,94299.47
2022-10-16T04:21:50.781Z,94302.38
2022-10-16T04:24:17.147Z,94303.31
2022-10-16T04:26:43.506Z,94305.16
2022-10-16T04:29:09.913Z,94311.44
2022-10-16T04:31:36.370Z,94313.00
2022-10-16T04:34:02.865Z,94307.75
2022-10-16T04:36:29.465Z,94314.06
2022-10-16T04:38:56.012Z,94313.59
2022-10-16T04:41:22.464Z,94321.00
2022-10-16T04:43:48.873Z,94315.59
2022-10-16T04:46:15.245Z,94322.06
2022-10-16T04:48:41.631Z,94320.81
2022-10-16T04:51:08.007Z,94317.13
2022-10-16T04:53:35.196Z,94316.81
2022-10-16T04:56:01.546Z,94317.91
2022-10-16T04:58:27.914Z,94315.75
2022-10-16T05:00:54.364Z,94324.69
2022-10-16T05:03:20.945Z,94324.06
2022-10-16T05:05:48.180Z,94322.06
2022-10-16T05:08:15.744Z,94327.16
2022-10-16T05:10:44.085Z,94325.94
2022-10-16T05:13:11.447Z,94324.69
2022-10-16T05:15:37.947Z,94319.47
2022-10-16T05:18:04.390Z,94315.28
2022-10-16T05:20:30.876Z,94311.13
2022-10-16T05:22:57.300Z,94318.53
2022-10-16T05:25:23.720Z,94322.69
2022-10-16T05:27:50.697Z,94314.84
2022-10-16T05:30:18.436Z,94321.59
2022-10-16T05:32:49.762Z,94323.94
2022-10-16T05:35:16.939Z,94320.09
2022-10-16T05:37:45.011Z,94318.38
2022-10-16T05:40:12.732Z,94321.44
2022-10-16T05:42:39.625Z,94320.38
2022-10-16T05:45:07.390Z,94329.00
2022-10-16T05:47:33.764Z,94337.66
2022-10-16T05:50:00.123Z,94342.59
2022-10-16T05:52:27.809Z,94345.69
2022-10-16T05:54:54.213Z,94355.88
2022-10-16T05:57:20.966Z,94359.41
2022-10-16T05:59:47.425Z,94350.78
2022-10-16T06:02:14.914Z,94344.16
2022-10-16T06:04:41.534Z,94346.19
2022-10-16T06:07:07.952Z,94360.50
2022-10-16T06:09:34.349Z,94358.03
2022-10-16T06:12:00.784Z,94351.38
2022-10-16T06:14:27.150Z,94362.03
2022-10-16T06:16:53.528Z,94367.44
2022-10-16T06:19:19.931Z,94360.97
2022-10-16T06:21:46.313Z,94359.25
2022-10-16T06:24:12.715Z,94363.88
2022-10-16T06:26:39.522Z,94372.22
2022-10-16T06:29:06.095Z,94375.44
2022-10-16T06:31:34.239Z,94377.44
2022-10-16T06:34:01.629Z,94381.47
2022-10-16T06:36:28.569Z,94377.16
2022-10-16T06:38:55.145Z,94380.69
2022-10-16T06:41:23.002Z,94383.75
2022-10-16T06:43:49.654Z,94393.47
2022-10-16T06:46:18.379Z,94405.97
2022-10-16T06:48:44.822Z,94395.78
2022-10-16T06:51:13.522Z,94408.59
2022-10-16T06:54:01.740Z,94405.66
2022-10-16T06:56:31.580Z,94405.97
2022-10-16T06:58:58.119Z,94408.75
2022-10-16T07:01:25.341Z,94409.53
2022-10-16T07:03:51.866Z,94418.78
2022-10-16T07:06:21.285Z,94426.00
2022-10-16T07:08:48.545Z,94427.88
2022-10-16T07:11:18.832Z,94425.53
2022-10-16T07:13:50.758Z,94428.00
2022-10-16T07:16:22.800Z,94426.00
2022-10-16T07:18:50.101Z,94432.63
2022-10-16T07:21:20.266Z,94427.97
2022-10-16T07:23:50.774Z,94435.69
2022-10-16T07:26:17.252Z,94437.25
2022-10-16T07:28:44.671Z,94437.06
2022-10-16T07:31:14.199Z,94445.84
2022-10-16T07:33:44.011Z,94453.25
2022-10-16T07:36:15.835Z,94447.03
2022-10-16T07:38:43.534Z,94444.13
2022-10-16T07:41:15.714Z,94451.38
2022-10-16T07:43:49.985Z,94456.31
2022-10-16T07:46:17.492Z,94460.03
2022-10-16T07:48:47.130Z,94456.31
2022-10-16T07:51:24.706Z,94462.34
2022-10-16T07:53:52.093Z,94467.59
2022-10-16T07:56:19.642Z,94469.88
2022-10-16T07:58:46.647Z,94469.88
2022-10-16T08:01:15.292Z,94477.28
2022-10-16T08:03:47.098Z,94454.13
2022-10-16T08:06:13.834Z,94474.03
2022-10-16T08:08:40.688Z,94480.19
2022-10-16T08:11:07.101Z,94479.72
2022-10-16T08:13:33.499Z,94482.16
2022-10-16T08:16:00.265Z,94495.78
2022-10-16T08:18:26.661Z,94489.41
2022-10-16T08:20:57.779Z,94496.66
2022-10-16T08:23:26.666Z,94504.22
2022-10-16T08:25:56.792Z,94508.75
2022-10-16T08:28:24.055Z,94510.41
2022-10-16T08:30:50.677Z,94506.81
2022-10-16T08:33:17.155Z,94508.06
2022-10-16T08:35:43.529Z,94509.75
2022-10-16T08:38:10.084Z,94506.16
2022-10-16T08:40:38.444Z,94511.56
2022-10-16T08:43:20.063Z,94515.44
2022-10-16T08:46:23.433Z,94528.09
2022-10-16T08:48:55.738Z,94518.47
2022-10-16T08:51:29.012Z,94516.59
2022-10-16T08:54:00.316Z,94518.25
2022-10-16T08:56:27.323Z,94510.06
2022-10-16T08:58:58.098Z,94511.22
2022-10-16T09:01:42.398Z,94513.03
2022-10-16T09:04:43.586Z,94516.25
2022-10-16T09:07:31.297Z,94531.50
2022-10-16T09:10:26.337Z,94526.38
2022-10-16T09:13:03.561Z,94532.41
2022-10-16T09:15:55.901Z,94533.19
2022-10-16T09:18:48.329Z,94535.50
2022-10-16T09:21:26.387Z,94533.31
2022-10-16T09:23:54.793Z,94538.13
2022-10-16T09:28:53.401Z,94553.66
2022-10-16T09:31:22.550Z,94558.16
2022-10-16T09:34:07.512Z,94560.78
2022-10-16T09:36:43.944Z,94560.78
2022-10-16T09:39:12.936Z,94557.19
2022-10-16T09:41:45.952Z,94562.16
2022-10-16T09:44:22.293Z,94566.63
2022-10-16T09:46:48.682Z,94576.66
2022-10-16T09:49:26.303Z,94575.69
2022-10-16T09:52:04.997Z,94571.13
2022-10-16T09:54:31.388Z,94568.13
2022-10-16T09:57:13.398Z,94575.03
2022-10-16T09:59:54.097Z,94572.69
2022-10-16T10:02:36.716Z,94569.56
2022-10-16T10:05:18.341Z,94565.34
2022-10-16T10:07:46.868Z,94578.09
2022-10-16T10:10:30.866Z,94573.72
2022-10-16T10:12:58.000Z,94572.84
2022-10-16T10:15:25.468Z,94578.56
2022-10-16T10:17:58.183Z,94571.31
2022-10-16T10:20:28.294Z,94579.53
2022-10-16T10:22:56.534Z,94578.88
2022-10-16T10:25:32.135Z,94585.50
2022-10-16T10:28:36.252Z,94577.38
2022-10-16T10:31:32.286Z,94574.41
2022-10-16T10:34:10.908Z,94580.44
2022-10-16T10:36:40.454Z,94579.78
2022-10-16T10:39:15.105Z,94575.28
2022-10-16T10:42:07.802Z,94563.41
2022-10-16T10:44:49.349Z,94581.22
2022-10-16T10:47:34.554Z,94577.25
2022-10-16T10:50:39.492Z,94567.81
2022-10-16T10:53:36.418Z,94570.00
2022-10-16T10:56:41.503Z,94574.16
2022-10-16T10:59:23.033Z,94572.44
2022-10-16T11:01:59.970Z,94563.97
2022-10-16T11:04:44.888Z,94568.53
2022-10-16T11:07:36.109Z,94566.66
2022-10-16T11:10:28.062Z,94565.34
2022-10-16T11:13:16.613Z,94562.38
2022-10-16T11:15:45.291Z,94571.94
2022-10-16T11:18:26.137Z,94567.63
2022-10-16T11:21:00.031Z,94568.09
2022-10-16T11:23:32.176Z,94572.59
2022-10-16T11:26:03.049Z,94570.16
2022-10-16T11:28:39.248Z,94575.66
2022-10-16T11:31:20.602Z,94566.13
2022-10-16T11:33:55.966Z,94569.16
2022-10-16T11:36:41.506Z,94566.44
2022-10-16T11:39:07.842Z,94556.03
2022-10-16T11:41:44.581Z,94548.69
2022-10-16T11:44:32.423Z,94557.19
2022-10-16T11:47:28.817Z,94554.47
2022-10-16T11:49:58.637Z,94560.69
2022-10-16T11:52:49.472Z,94558.44
2022-10-16T11:55:20.891Z,94563.53
2022-10-16T12:00:31.931Z,94561.28
2022-10-16T12:03:10.632Z,94551.41
2022-10-16T12:06:11.841Z,94557.44
2022-10-16T12:08:38.524Z,94546.97
2022-10-16T12:11:10.964Z,94549.44
2022-10-16T12:13:40.295Z,94554.81
2022-10-16T12:16:13.015Z,94549.91
2022-10-16T12:18:45.555Z,94548.28
2022-10-16T12:21:16.664Z,94551.09
2022-10-16T12:23:54.809Z,94546.97
2022-10-16T12:26:29.950Z,94548.97
2022-10-16T12:28:58.006Z,94544.28
2022-10-16T12:31:49.789Z,94549.84
2022-10-16T12:34:30.219Z,94552.09
2022-10-16T12:37:07.859Z,94551.75
2022-10-16T12:39:34.357Z,94551.03
2022-10-16T12:42:06.915Z,94550.16
2022-10-16T12:44:36.674Z,94547.88
2022-10-16T12:47:03.967Z,94548.56
2022-10-16T12:49:36.470Z,94553.75
2022-10-16T12:52:02.923Z,94558.50
2022-10-16T12:54:32.633Z,94550.75
2022-10-16T12:57:30.609Z,94550.34
2022-10-16T13:00:09.828Z,94554.84
2022-10-16T13:03:00.873Z,94550.06
2022-10-16T13:05:33.249Z,94554.75
2022-10-16T13:08:11.873Z,94557.56
2022-10-16T13:10:54.288Z,94560.28
2022-10-16T13:13:39.487Z,94562.22
2022-10-16T13:16:18.028Z,94555.75
2022-10-16T13:18:56.480Z,94560.72
2022-10-16T13:21:38.225Z,94566.09
2022-10-16T13:24:23.036Z,94561.19
2022-10-16T13:27:04.588Z,94567.78
2022-10-16T13:29:32.817Z,94565.53
2022-10-16T13:32:01.673Z,94570.13
2022-10-16T13:34:28.876Z,94570.91
2022-10-16T13:36:55.334Z,94563.25
2022-10-16T13:39:30.245Z,94563.31
2022-10-16T13:42:08.884Z,94563.66
2022-10-16T13:44:46.864Z,94565.19
2022-10-16T13:47:21.378Z,94564.03
2022-10-16T13:49:59.833Z,94569.44
2022-10-16T13:52:26.314Z,94574.69
2022-10-16T13:54:52.854Z,94576.91
2022-10-16T13:57:27.288Z,94560.84
2022-10-16T13:59:55.705Z,94570.31
2022-10-16T14:02:30.476Z,94567.22
2022-10-16T14:04:58.486Z,94569.19
2022-10-16T14:07:30.800Z,94580.97
2022-10-16T14:10:19.580Z,94580.25
2022-10-16T14:12:46.813Z,94581.78
2022-10-16T14:15:18.492Z,94582.19
2022-10-16T14:17:48.749Z,94584.97
2022-10-16T14:20:16.952Z,94586.56
2022-10-16T14:22:44.309Z,94584.69
2022-10-16T14:25:20.125Z,94582.00
2022-10-16T14:27:57.842Z,94577.44
2022-10-16T14:30:24.481Z,94583.53
2022-10-16T14:33:01.642Z,94577.81
2022-10-16T14:35:39.954Z,94588.91
2022-10-16T14:38:16.831Z,94596.91
2022-10-16T14:40:49.020Z,94585.84
2022-10-16T14:43:27.248Z,94587.75
2022-10-16T14:45:56.777Z,94577.78
2022-10-16T14:48:23.677Z,94586.53
2022-10-16T14:50:50.419Z,94577.34
2022-10-16T14:53:17.084Z,94581.78
2022-10-16T14:55:44.322Z,94583.53
2022-10-16T14:58:24.183Z,94585.84
2022-10-16T15:00:50.627Z,94586.75
2022-10-16T15:03:17.149Z,94591.38
2022-10-16T15:05:43.572Z,94589.03
2022-10-16T15:08:10.137Z,94593.88
2022-10-16T15:10:40.507Z,94604.06
2022-10-16T15:13:06.927Z,94596.81
2022-10-16T15:15:40.109Z,94590.38
2022-10-16T15:18:06.500Z,94588.50
2022-10-16T15:20:38.153Z,94601.34
2022-10-16T15:23:10.712Z,94590.13
2022-10-16T15:25:54.362Z,94595.09
2022-10-16T15:28:22.045Z,94597.66
2022-10-16T15:30:51.536Z,94596.41
2022-10-16T15:33:20.276Z,94598.19
2022-10-16T15:35:50.887Z,94594.53
2022-10-16T15:38:19.482Z,94589.38
2022-10-16T15:40:47.999Z,94594.38
2022-10-16T15:43:14.468Z,94591.78
2022-10-16T15:45:41.076Z,94599.94
2022-10-16T15:48:11.116Z,94599.78
2022-10-16T15:50:38.839Z,94592.75
2022-10-16T15:53:05.298Z,94602.41
2022-10-16T15:55:31.756Z,94607.97
2022-10-16T15:57:58.144Z,94608.94
2022-10-16T16:00:26.455Z,94612.97
2022-10-16T16:02:54.690Z,94614.78
2022-10-16T16:05:22.977Z,94611.88
2022-10-16T16:07:49.637Z,94625.69
2022-10-16T16:10:16.628Z,94620.97
2022-10-16T16:12:43.101Z,94622.28
2022-10-16T16:15:10.780Z,94622.44
2022-10-16T16:17:37.922Z,94620.38
2022-10-16T16:20:06.011Z,94612.63
2022-10-16T16:22:32.495Z,94618.50
2022-10-16T16:24:58.922Z,94613.03
2022-10-16T16:27:30.711Z,94620.78
2022-10-16T16:29:57.422Z,94618.75
2022-10-16T16:32:23.839Z,94626.84
2022-10-16T16:34:50.232Z,94625.94
2022-10-16T16:37:16.931Z,94628.16
2022-10-16T16:39:43.578Z,94625.75
2022-10-16T16:42:11.032Z,94634.78
2022-10-16T16:44:37.659Z,94632.03
2022-10-16T16:47:05.641Z,94624.69
2022-10-16T16:49:32.762Z,94634.81
2022-10-16T16:51:59.417Z,94631.31
2022-10-16T16:54:25.958Z,94633.09
2022-10-16T16:56:52.472Z,94639.72
2022-10-16T16:59:21.164Z,94644.03
2022-10-16T17:01:49.960Z,94648.47
2022-10-16T17:04:19.742Z,94648.59
2022-10-16T17:06:46.489Z,94658.72
2022-10-16T17:09:14.215Z,94663.13
2022-10-16T17:11:42.453Z,94668.22
2022-10-16T17:14:09.093Z,94668.00
2022-10-16T17:16:37.753Z,94672.41
2022-10-16T17:19:09.464Z,94673.06
2022-10-16T17:21:36.508Z,94675.28
2022-10-16T17:24:03.732Z,94671.94
2022-10-16T17:26:30.529Z,94675.69
2022-10-16T17:28:59.386Z,94682.81
2022-10-16T17:31:29.369Z,94689.09
2022-10-16T17:33:56.379Z,94678.34
2022-10-16T17:36:23.620Z,94687.78
2022-10-16T17:38:50.147Z,94695.25
2022-10-16T17:41:19.383Z,94693.63
2022-10-16T17:43:46.658Z,94693.50
2022-10-16T17:46:14.611Z,94696.78
2022-10-16T17:48:44.205Z,94696.25
2022-10-16T17:51:13.309Z,94695.03
2022-10-16T17:53:40.147Z,94690.09
2022-10-16T17:56:12.013Z,94699.09
2022-10-16T17:58:39.223Z,94704.03
2022-10-16T18:01:22.353Z,94702.13
2022-10-16T18:03:51.086Z,94707.03
2022-10-16T18:06:22.833Z,94705.25
2022-10-16T18:08:51.105Z,94712.31
2022-10-16T18:11:18.110Z,94708.88
2022-10-16T18:13:44.519Z,94711.13
2022-10-16T18:16:13.711Z,94722.53
2022-10-16T18:18:41.667Z,94719.94
2022-10-16T18:21:11.023Z,94730.22
2022-10-16T18:23:39.020Z,94725.47
2022-10-16T18:26:07.072Z,94717.63
2022-10-16T18:28:33.794Z,94722.50
2022-10-16T18:31:06.219Z,94731.47
2022-10-16T18:33:33.560Z,94734.28
2022-10-16T18:36:05.035Z,94730.00
2022-10-16T18:38:31.675Z,94730.91
2022-10-16T18:40:58.463Z,94730.50
2022-10-16T18:43:24.832Z,94732.94
2022-10-16T18:46:04.388Z,94736.97
2022-10-16T18:48:32.004Z,94740.25
2022-10-16T18:51:10.197Z,94736.38
2022-10-16T18:53:38.111Z,94744.91
2022-10-16T18:56:04.976Z,94741.69
2022-10-16T18:58:31.841Z,94749.72
2022-10-16T19:01:04.557Z,94742.16
2022-10-16T19:03:31.671Z,94744.31
2022-10-16T19:06:08.200Z,94751.00
2022-10-16T19:08:38.716Z,94756.88
2022-10-16T19:11:10.484Z,94750.72
2022-10-16T19:13:36.948Z,94762.34
2022-10-16T19:16:19.428Z,94759.56
2022-10-16T19:18:47.328Z,94756.78
2022-10-16T19:21:15.037Z,94759.44
2022-10-16T19:23:42.130Z,94765.31
2022-10-16T19:26:13.966Z,94767.94
2022-10-16T19:28:41.045Z,94767.78
2022-10-16T19:31:13.144Z,94771.19
2022-10-16T19:33:40.804Z,94772.75
2022-10-16T19:36:18.455Z,94773.50
2022-10-16T19:38:46.777Z,94772.28
2022-10-16T19:41:15.890Z,94770.31
2022-10-16T19:43:43.384Z,94773.38
2022-10-16T19:46:12.792Z,94780.84
2022-10-16T19:48:40.298Z,94785.16
2022-10-16T19:51:10.271Z,94783.31
2022-10-16T19:53:36.693Z,94784.56
2022-10-16T19:56:21.948Z,94786.28
2022-10-16T19:58:49.222Z,94774.06
2022-10-16T20:01:16.613Z,94789.84
2022-10-16T20:03:43.900Z,94792.63
2022-10-16T20:06:10.719Z,94795.88
2022-10-16T20:08:38.394Z,94792.34
2022-10-16T20:11:06.293Z,94798.19
2022-10-16T20:13:34.075Z,94796.34
2022-10-16T20:16:06.064Z,94796.78
2022-10-16T20:18:32.829Z,94798.03
2022-10-16T20:20:59.306Z,94796.78
2022-10-16T20:23:26.137Z,94802.53
2022-10-16T20:25:52.911Z,94799.41
2022-10-16T20:28:21.459Z,94809.16
2022-10-16T20:30:50.533Z,94803.75
2022-10-16T20:33:17.832Z,94807.44
2022-10-16T20:35:49.197Z,94811.19
2022-10-16T20:38:17.574Z,94813.31
2022-10-16T20:40:46.802Z,94821.34
2022-10-16T20:43:15.872Z,94821.66
2022-10-16T20:45:42.375Z,94831.09
2022-10-16T20:48:11.128Z,94813.28
2022-10-16T20:50:37.957Z,94824.88
2022-10-16T20:53:04.353Z,94831.84
2022-10-16T20:55:31.297Z,94829.34
2022-10-16T20:57:57.726Z,94836.78
2022-10-16T21:00:24.107Z,94831.81
2022-10-16T21:02:51.665Z,94839.34
2022-10-16T21:05:18.816Z,94837.16
2022-10-16T21:07:45.939Z,94841.66
2022-10-16T21:10:12.937Z,94847.03
2022-10-16T21:12:39.352Z,94847.16
2022-10-16T21:15:15.165Z,94850.22
2022-10-16T21:17:42.235Z,94848.59
2022-10-16T21:20:09.049Z,94863.69
2022-10-16T21:22:35.463Z,94859.34
2022-10-16T21:25:01.898Z,94853.16
2022-10-16T21:27:28.267Z,94861.53
2022-10-16T21:29:54.713Z,94864.75
2022-10-16T21:32:21.418Z,94859.97
2022-10-16T21:34:48.205Z,94870.00
2022-10-16T21:37:14.721Z,94865.63
2022-10-16T21:39:41.404Z,94865.28
2022-10-16T21:42:07.843Z,94860.94
2022-10-16T21:44:34.244Z,94865.69
2022-10-16T21:47:00.624Z,94870.94
2022-10-16T21:49:27.234Z,94866.19
2022-10-16T21:51:53.658Z,94864.75
2022-10-16T21:54:22.488Z,94863.78
2022-10-16T21:56:48.946Z,94862.66
2022-10-16T21:59:15.679Z,94859.19
2022-10-16T22:01:43.043Z,94863.84
2022-10-16T22:04:14.319Z,94871.44
2022-10-16T22:06:40.952Z,94864.16
2022-10-16T22:09:07.655Z,94870.72
2022-10-16T22:11:36.994Z,94866.97
2022-10-16T22:14:13.222Z,94875.56
2022-10-16T22:16:39.932Z,94874.03
2022-10-16T22:19:07.200Z,94880.06
2022-10-16T22:21:38.943Z,94876.84
2022-10-16T22:24:06.412Z,94877.50
2022-10-16T22:26:33.776Z,94874.78
2022-10-16T22:29:00.258Z,94882.06
2022-10-16T22:31:27.008Z,94887.28
2022-10-16T22:34:01.825Z,94872.69
2022-10-16T22:36:28.773Z,94882.66
2022-10-16T22:38:55.801Z,94882.22
2022-10-16T22:41:22.956Z,94871.78
2022-10-16T22:43:49.726Z,94870.13
2022-10-16T22:46:24.387Z,94872.00
2022-10-16T22:48:51.533Z,94869.69
2022-10-16T22:51:18.479Z,94867.38
2022-10-16T22:53:46.626Z,94859.63
2022-10-16T22:56:13.841Z,94858.25
2022-10-16T22:58:40.273Z,94868.91
2022-10-16T23:01:34.708Z,94870.78
2022-10-16T23:04:01.533Z,94871.28
2022-10-16T23:06:30.044Z,94860.28
2022-10-16T23:08:59.239Z,94864.47
2022-10-16T23:11:27.739Z,94869.84
2022-10-16T23:13:54.761Z,94869.38
2022-10-16T23:16:22.963Z,94872.47
2022-10-16T23:18:50.165Z,94874.03
2022-10-16T23:21:20.831Z,94866.31
2022-10-16T23:23:47.698Z,94868.34
2022-10-16T23:26:17.433Z,94873.78
2022-10-16T23:28:44.150Z,94867.16
2022-10-16T23:31:12.675Z,94872.28
2022-10-16T23:33:39.936Z,94871.56
2022-10-16T23:36:08.860Z,94871.00
2022-10-16T23:38:35.467Z,94871.81
2022-10-16T23:41:02.202Z,94877.66
2022-10-16T23:43:29.011Z,94872.38
2022-10-16T23:45:55.473Z,94887.53
2022-10-16T23:48:21.935Z,94885.19
2022-10-16T23:50:48.318Z,94884.72
2022-10-16T23:53:15.075Z,94888.41
2022-10-16T23:55:41.769Z,94889.81
2022-10-16T23:58:08.457Z,94885.16
